createdAt,value
2017-09-15T00:00:26.589Z,10.69
2017-09-15T00:01:26.584Z,10.72
2017-09-15T00:02:26.592Z,10.64
2017-09-15T00:03:26.581Z,10.59
2017-09-15T00:04:26.576Z,10.57
2017-09-15T00:05:26.580Z,10.57
2017-09-15T00:06:26.572Z,10.59
2017-09-15T00:07:26.577Z,10.60
2017-09-15T00:08:26.578Z,10.59
2017-09-15T00:09:26.573Z,10.75
2017-09-15T00:10:26.575Z,10.69
2017-09-15T00:11:26.573Z,10.84
2017-09-15T00:12:26.571Z,10.81
2017-09-15T00:13:26.570Z,10.89
2017-09-15T00:14:26.569Z,10.87
2017-09-15T00:15:26.566Z,10.82
2017-09-15T00:16:26.565Z,10.72
2017-09-15T00:17:26.563Z,10.78
2017-09-15T00:18:26.563Z,10.72
2017-09-15T00:19:26.574Z,10.75
2017-09-15T00:20:26.565Z,10.75
2017-09-15T00:21:26.561Z,10.74
2017-09-15T00:22:26.557Z,10.76
2017-09-15T00:23:26.556Z,10.75
2017-09-15T00:24:26.553Z,10.72
2017-09-15T00:25:26.554Z,10.67
2017-09-15T00:26:26.553Z,10.78
2017-09-15T00:27:26.554Z,10.75
2017-09-15T00:28:26.553Z,10.71
2017-09-15T00:29:26.551Z,10.60
2017-09-15T00:30:26.549Z,10.69
2017-09-15T00:31:26.550Z,10.69
2017-09-15T00:32:26.562Z,10.75
2017-09-15T00:33:26.544Z,10.60
2017-09-15T00:34:26.558Z,10.69
2017-09-15T00:35:26.542Z,10.71
2017-09-15T00:36:26.542Z,10.71
2017-09-15T00:37:26.543Z,10.68
2017-09-15T00:38:26.538Z,10.76
2017-09-15T00:39:26.551Z,10.71
2017-09-15T00:40:26.540Z,10.64
2017-09-15T00:41:26.537Z,10.78
2017-09-15T00:42:26.533Z,10.76
2017-09-15T00:43:26.536Z,10.72
2017-09-15T00:44:26.533Z,10.74
2017-09-15T00:45:26.530Z,10.76
2017-09-15T00:46:26.529Z,10.82
2017-09-15T00:47:26.535Z,10.75
2017-09-15T00:48:26.534Z,10.76
2017-09-15T00:49:26.524Z,10.75
2017-09-15T00:50:26.538Z,10.75
2017-09-15T00:51:26.523Z,10.72
2017-09-15T00:52:26.538Z,10.68
2017-09-15T00:53:26.521Z,10.78
2017-09-15T00:54:26.519Z,10.67
2017-09-15T00:55:26.529Z,10.81
2017-09-15T00:56:26.518Z,10.74
2017-09-15T00:57:26.518Z,10.76
2017-09-15T00:58:26.514Z,10.86
2017-09-15T00:59:26.516Z,10.93
2017-09-15T01:00:26.515Z,10.93
2017-09-15T01:01:26.672Z,10.89
2017-09-15T01:02:26.510Z,10.90
2017-09-15T01:03:26.511Z,10.79
2017-09-15T01:04:26.547Z,10.97
2017-09-15T01:05:26.532Z,11.00
2017-09-15T01:06:26.514Z,10.99
2017-09-15T01:07:26.506Z,10.92
2017-09-15T01:08:26.503Z,10.90
2017-09-15T01:09:26.505Z,10.90
2017-09-15T01:10:26.507Z,11.07
2017-09-15T01:11:26.505Z,11.02
2017-09-15T01:12:26.506Z,10.92
2017-09-15T01:13:26.507Z,11.07
2017-09-15T01:14:26.501Z,10.99
2017-09-15T01:15:26.500Z,10.90
2017-09-15T01:16:26.499Z,10.99
2017-09-15T01:17:26.499Z,10.94
2017-09-15T01:18:26.496Z,10.87
2017-09-15T01:19:26.494Z,10.93
2017-09-15T01:20:26.499Z,10.96
2017-09-15T01:21:26.494Z,10.93
2017-09-15T01:22:26.496Z,10.93
2017-09-15T01:23:26.494Z,10.99
2017-09-15T01:24:26.494Z,10.94
2017-09-15T01:25:26.490Z,10.89
2017-09-15T01:26:26.491Z,10.90
2017-09-15T01:27:26.493Z,10.99
2017-09-15T01:28:26.488Z,10.99
2017-09-15T01:29:26.488Z,10.93
2017-09-15T01:30:26.492Z,10.93
2017-09-15T01:31:26.499Z,10.94
2017-09-15T01:32:26.485Z,10.92
2017-09-15T01:33:26.486Z,11.02
2017-09-15T01:34:26.482Z,11.07
2017-09-15T01:35:26.484Z,11.11
2017-09-15T01:36:26.479Z,11.05
2017-09-15T01:37:26.476Z,10.96
2017-09-15T01:38:26.495Z,11.02
2017-09-15T01:39:26.481Z,10.97
2017-09-15T01:40:26.482Z,11.02
2017-09-15T01:41:26.478Z,11.02
2017-09-15T01:42:26.478Z,11.10
2017-09-15T01:43:26.476Z,11.07
2017-09-15T01:44:26.474Z,11.05
2017-09-15T01:45:26.476Z,11.11
2017-09-15T01:46:26.470Z,11.07
2017-09-15T01:47:26.471Z,11.08
2017-09-15T01:48:26.484Z,11.00
2017-09-15T01:49:26.472Z,11.11
2017-09-15T01:50:26.472Z,11.00
2017-09-15T01:51:26.471Z,11.10
2017-09-15T01:52:26.471Z,10.99
2017-09-15T01:53:26.469Z,11.04
2017-09-15T01:54:26.468Z,11.07
2017-09-15T01:55:26.467Z,11.04
2017-09-15T01:56:26.468Z,10.99
2017-09-15T01:57:26.466Z,11.02
2017-09-15T01:58:26.464Z,10.90
2017-09-15T01:59:26.463Z,11.02
2017-09-15T02:00:26.482Z,11.00
2017-09-15T02:01:26.466Z,11.07
2017-09-15T02:02:26.462Z,11.04
2017-09-15T02:03:26.462Z,10.92
2017-09-15T02:04:26.461Z,10.96
2017-09-15T02:05:26.460Z,10.97
2017-09-15T02:06:26.459Z,10.97
2017-09-15T02:07:26.460Z,10.89
2017-09-15T02:08:26.457Z,10.90
2017-09-15T02:09:26.459Z,10.94
2017-09-15T02:10:26.459Z,10.93
2017-09-15T02:11:26.456Z,10.96
2017-09-15T02:12:26.455Z,10.87
2017-09-15T02:13:26.455Z,10.89
2017-09-15T02:14:26.455Z,10.92
2017-09-15T02:15:26.454Z,10.97
2017-09-15T02:16:26.448Z,10.92
2017-09-15T02:17:26.451Z,10.87
2017-09-15T02:18:26.450Z,10.96
2017-09-15T02:19:26.450Z,10.96
2017-09-15T02:20:26.456Z,10.96
2017-09-15T02:21:26.448Z,10.96
2017-09-15T02:22:26.447Z,10.90
2017-09-15T02:23:26.446Z,10.90
2017-09-15T02:24:26.448Z,10.92
2017-09-15T02:25:26.443Z,10.99
2017-09-15T02:26:26.447Z,11.02
2017-09-15T02:27:26.446Z,11.08
2017-09-15T02:28:26.446Z,11.11
2017-09-15T02:29:26.441Z,11.15
2017-09-15T02:30:26.442Z,11.11
2017-09-15T02:31:26.442Z,11.11
2017-09-15T02:32:26.440Z,11.10
2017-09-15T02:33:26.441Z,11.08
2017-09-15T02:34:26.441Z,11.05
2017-09-15T02:35:26.439Z,11.12
2017-09-15T02:36:26.438Z,11.10
2017-09-15T02:37:26.439Z,11.14
2017-09-15T02:38:26.434Z,11.14
2017-09-15T02:39:26.438Z,11.07
2017-09-15T02:40:26.440Z,11.17
2017-09-15T02:41:26.437Z,11.18
2017-09-15T02:42:26.431Z,11.12
2017-09-15T02:43:26.434Z,11.15
2017-09-15T02:44:26.436Z,11.17
2017-09-15T02:45:26.446Z,11.14
2017-09-15T02:46:26.432Z,11.17
2017-09-15T02:47:26.433Z,11.18
2017-09-15T02:48:26.433Z,11.18
2017-09-15T02:49:26.431Z,11.19
2017-09-15T02:50:26.431Z,11.19
2017-09-15T02:51:26.427Z,11.35
2017-09-15T02:52:26.496Z,11.23
2017-09-15T02:53:26.431Z,11.23
2017-09-15T02:54:26.429Z,11.26
2017-09-15T02:55:26.431Z,11.25
2017-09-15T02:56:26.428Z,11.22
2017-09-15T02:57:26.426Z,11.19
2017-09-15T02:58:26.427Z,11.27
2017-09-15T02:59:26.424Z,11.27
2017-09-15T03:00:26.431Z,11.29
2017-09-15T03:01:26.425Z,11.36
2017-09-15T03:02:26.420Z,11.29
2017-09-15T03:03:26.424Z,11.30
2017-09-15T03:04:26.423Z,11.36
2017-09-15T03:05:26.422Z,11.27
2017-09-15T03:06:26.419Z,11.30
2017-09-15T03:07:26.421Z,11.30
2017-09-15T03:08:26.420Z,11.22
2017-09-15T03:09:26.419Z,11.25
2017-09-15T03:10:26.420Z,11.29
2017-09-15T03:11:26.421Z,11.27
2017-09-15T03:12:26.416Z,11.19
2017-09-15T03:13:26.420Z,11.27
2017-09-15T03:14:26.421Z,11.29
2017-09-15T03:15:26.416Z,11.23
2017-09-15T03:16:26.420Z,11.23
2017-09-15T03:17:26.416Z,11.32
2017-09-15T03:18:26.414Z,11.22
2017-09-15T03:19:26.414Z,11.25
2017-09-15T03:20:26.431Z,11.29
2017-09-15T03:21:26.410Z,11.27
2017-09-15T03:22:26.412Z,11.35
2017-09-15T03:23:26.414Z,11.32
2017-09-15T03:24:26.451Z,11.27
2017-09-15T03:25:26.412Z,11.33
2017-09-15T03:26:26.411Z,11.32
2017-09-15T03:27:26.413Z,11.45
2017-09-15T03:28:26.411Z,11.43
2017-09-15T03:29:26.404Z,11.43
2017-09-15T03:30:26.409Z,11.48
2017-09-15T03:31:26.414Z,11.47
2017-09-15T03:32:26.409Z,11.44
2017-09-15T03:33:26.407Z,11.33
2017-09-15T03:34:26.407Z,11.40
2017-09-15T03:35:26.401Z,11.30
2017-09-15T03:36:26.407Z,11.47
2017-09-15T03:37:26.407Z,11.44
2017-09-15T03:38:26.408Z,11.41
2017-09-15T03:39:26.409Z,11.44
2017-09-15T03:40:26.409Z,11.45
2017-09-15T03:41:26.406Z,11.41
2017-09-15T03:42:26.407Z,11.43
2017-09-15T03:43:26.403Z,11.45
2017-09-15T03:44:26.408Z,11.37
2017-09-15T03:45:26.400Z,11.32
2017-09-15T03:46:26.404Z,11.35
2017-09-15T03:47:26.402Z,11.40
2017-09-15T03:48:26.400Z,11.41
2017-09-15T03:49:26.403Z,11.40
2017-09-15T03:50:26.400Z,11.47
2017-09-15T03:51:26.401Z,11.45
2017-09-15T03:52:26.400Z,11.48
2017-09-15T03:53:26.399Z,11.44
2017-09-15T03:54:26.399Z,11.41
2017-09-15T03:55:26.407Z,11.41
2017-09-15T03:56:26.397Z,11.47
2017-09-15T03:57:26.396Z,11.45
2017-09-15T03:58:26.396Z,11.41
2017-09-15T03:59:26.394Z,11.37
2017-09-15T04:00:26.398Z,11.41
2017-09-15T04:01:26.392Z,11.30
2017-09-15T04:02:26.396Z,11.33
2017-09-15T04:03:26.401Z,11.33
2017-09-15T04:04:26.395Z,11.23
2017-09-15T04:05:26.394Z,11.27
2017-09-15T04:06:26.394Z,11.19
2017-09-15T04:07:26.394Z,11.29
2017-09-15T04:08:26.392Z,11.19
2017-09-15T04:09:26.391Z,11.19
2017-09-15T04:10:26.391Z,11.26
2017-09-15T04:11:26.391Z,11.23
2017-09-15T04:12:26.389Z,11.23
2017-09-15T04:13:26.390Z,11.33
2017-09-15T04:14:26.392Z,11.30
2017-09-15T04:15:26.392Z,11.36
2017-09-15T04:16:26.392Z,11.29
2017-09-15T04:17:26.388Z,11.35
2017-09-15T04:18:26.388Z,11.36
2017-09-15T04:19:26.388Z,11.37
2017-09-15T04:20:26.387Z,11.33
2017-09-15T04:21:26.387Z,11.35
2017-09-15T04:22:26.387Z,11.33
2017-09-15T04:23:26.387Z,11.44
2017-09-15T04:24:26.386Z,11.33
2017-09-15T04:25:26.386Z,11.45
2017-09-15T04:26:26.384Z,11.41
2017-09-15T04:27:26.384Z,11.43
2017-09-15T04:28:26.385Z,11.45
2017-09-15T04:29:26.380Z,11.40
2017-09-15T04:30:26.383Z,11.45
2017-09-15T04:31:26.386Z,11.45
2017-09-15T04:32:26.382Z,11.47
2017-09-15T04:33:26.384Z,11.54
2017-09-15T04:34:26.382Z,11.55
2017-09-15T04:35:26.379Z,11.51
2017-09-15T04:36:26.386Z,11.52
2017-09-15T04:37:26.380Z,11.55
2017-09-15T04:38:26.401Z,11.54
2017-09-15T04:39:26.379Z,11.54
2017-09-15T04:40:26.380Z,11.48
2017-09-15T04:41:26.380Z,11.44
2017-09-15T04:42:26.379Z,11.43
2017-09-15T04:43:26.382Z,11.50
2017-09-15T04:44:26.378Z,11.47
2017-09-15T04:45:26.377Z,11.52
2017-09-15T04:46:26.378Z,11.55
2017-09-15T04:47:26.376Z,11.45
2017-09-15T04:48:26.377Z,11.55
2017-09-15T04:49:26.375Z,11.41
2017-09-15T04:50:26.381Z,11.44
2017-09-15T04:51:26.377Z,11.50
2017-09-15T04:52:26.379Z,11.52
2017-09-15T04:53:26.375Z,11.41
2017-09-15T04:54:26.375Z,11.50
2017-09-15T04:55:26.374Z,11.41
2017-09-15T04:56:26.374Z,11.52
2017-09-15T04:57:26.375Z,11.52
2017-09-15T04:58:26.372Z,11.47
2017-09-15T04:59:26.374Z,11.52
2017-09-15T05:00:26.372Z,11.57
2017-09-15T05:01:26.376Z,11.50
2017-09-15T05:02:26.375Z,11.51
2017-09-15T05:03:26.375Z,11.57
2017-09-15T05:04:26.373Z,11.52
2017-09-15T05:05:26.375Z,11.52
2017-09-15T05:06:26.370Z,11.57
2017-09-15T05:07:26.371Z,11.48
2017-09-15T05:08:26.371Z,11.50
2017-09-15T05:09:26.370Z,11.59
2017-09-15T05:10:26.370Z,11.48
2017-09-15T05:11:26.369Z,11.51
2017-09-15T05:12:26.368Z,11.65
2017-09-15T05:13:26.369Z,11.57
2017-09-15T05:14:26.371Z,11.55
2017-09-15T05:15:26.369Z,11.59
2017-09-15T05:16:26.367Z,11.51
2017-09-15T05:17:26.371Z,11.55
2017-09-15T05:18:26.367Z,11.70
2017-09-15T05:19:26.373Z,11.63
2017-09-15T05:20:26.368Z,11.65
2017-09-15T05:21:26.371Z,11.62
2017-09-15T05:22:26.368Z,11.62
2017-09-15T05:23:26.367Z,11.68
2017-09-15T05:24:26.365Z,11.65
2017-09-15T05:25:26.380Z,11.70
2017-09-15T05:26:26.367Z,11.66
2017-09-15T05:27:26.365Z,11.69
2017-09-15T05:28:26.367Z,11.69
2017-09-15T05:29:26.364Z,11.73
2017-09-15T05:30:26.366Z,11.68
2017-09-15T05:31:26.368Z,11.73
2017-09-15T05:32:26.367Z,11.70
2017-09-15T05:33:26.365Z,11.83
2017-09-15T05:34:26.383Z,11.73
2017-09-15T05:35:26.365Z,11.75
2017-09-15T05:36:26.369Z,11.77
2017-09-15T05:37:26.364Z,11.84
2017-09-15T05:38:26.365Z,11.75
2017-09-15T05:39:26.365Z,11.77
2017-09-15T05:40:26.366Z,11.70
2017-09-15T05:41:26.367Z,11.81
2017-09-15T05:42:26.363Z,11.75
2017-09-15T05:43:26.365Z,11.83
2017-09-15T05:44:26.364Z,11.83
2017-09-15T05:45:26.365Z,11.83
2017-09-15T05:46:26.366Z,11.72
2017-09-15T05:47:26.366Z,11.84
2017-09-15T05:48:26.364Z,11.83
2017-09-15T05:49:26.364Z,11.87
2017-09-15T05:50:26.368Z,11.94
2017-09-15T05:51:26.370Z,11.95
2017-09-15T05:52:26.363Z,11.95
2017-09-15T05:53:26.364Z,11.95
2017-09-15T05:54:26.364Z,12.00
2017-09-15T05:55:26.363Z,11.88
2017-09-15T05:56:26.363Z,12.02
2017-09-15T05:57:26.365Z,11.91
2017-09-15T05:58:26.364Z,11.99
2017-09-15T05:59:26.365Z,11.91
2017-09-15T06:00:26.360Z,12.07
2017-09-15T06:01:26.367Z,12.00
2017-09-15T06:02:26.363Z,12.09
2017-09-15T06:03:26.366Z,12.09
2017-09-15T06:04:26.367Z,12.17
2017-09-15T06:05:26.367Z,12.09
2017-09-15T06:06:26.368Z,12.12
2017-09-15T06:07:26.365Z,12.18
2017-09-15T06:08:26.368Z,12.20
2017-09-15T06:09:26.366Z,12.18
2017-09-15T06:10:26.368Z,12.20
2017-09-15T06:11:26.371Z,12.36
2017-09-15T06:12:26.368Z,12.36
2017-09-15T06:13:26.372Z,12.35
2017-09-15T06:14:26.369Z,12.46
2017-09-15T06:15:26.369Z,12.47
2017-09-15T06:16:26.370Z,12.47
2017-09-15T06:17:26.372Z,12.53
2017-09-15T06:18:26.373Z,12.49
2017-09-15T06:19:26.374Z,12.60
2017-09-15T06:20:26.373Z,12.47
2017-09-15T06:21:26.375Z,12.46
2017-09-15T06:22:26.373Z,12.47
2017-09-15T06:23:26.378Z,12.37
2017-09-15T06:24:26.376Z,12.47
2017-09-15T06:25:26.375Z,12.50
2017-09-15T06:26:26.395Z,12.53
2017-09-15T06:27:26.381Z,12.49
2017-09-15T06:28:26.384Z,12.43
2017-09-15T06:29:26.387Z,12.50
2017-09-15T06:30:26.378Z,12.58
2017-09-15T06:31:26.381Z,12.61
2017-09-15T06:32:26.384Z,12.70
2017-09-15T06:33:26.381Z,12.80
2017-09-15T06:34:26.382Z,12.83
2017-09-15T06:35:26.384Z,12.82
2017-09-15T06:36:26.384Z,12.78
2017-09-15T06:37:26.385Z,12.75
2017-09-15T06:38:26.386Z,12.76
2017-09-15T06:39:26.391Z,12.85
2017-09-15T06:40:26.387Z,12.87
2017-09-15T06:41:26.392Z,12.90
2017-09-15T06:42:26.389Z,12.93
2017-09-15T06:43:26.391Z,12.90
2017-09-15T06:44:26.404Z,12.85
2017-09-15T06:45:26.392Z,12.95
2017-09-15T06:46:26.393Z,12.93
2017-09-15T06:47:26.394Z,12.93
2017-09-15T06:48:26.407Z,13.05
2017-09-15T06:49:26.395Z,13.13
2017-09-15T06:50:26.425Z,13.04
2017-09-15T06:51:26.398Z,13.09
2017-09-15T06:52:26.401Z,12.97
2017-09-15T06:53:26.411Z,12.93
2017-09-15T06:54:26.403Z,12.95
2017-09-15T06:55:26.401Z,13.00
2017-09-15T06:56:26.416Z,12.91
2017-09-15T06:57:26.405Z,12.93
2017-09-15T06:58:26.407Z,13.04
2017-09-15T06:59:26.402Z,12.97
2017-09-15T07:00:26.414Z,13.01
2017-09-15T07:01:26.414Z,12.97
2017-09-15T07:02:26.411Z,12.93
2017-09-15T07:03:26.413Z,12.91
2017-09-15T07:04:26.412Z,12.98
2017-09-15T07:05:26.415Z,13.05
2017-09-15T07:06:26.416Z,13.05
2017-09-15T07:07:26.417Z,13.08
2017-09-15T07:08:26.414Z,13.12
2017-09-15T07:09:26.418Z,13.11
2017-09-15T07:10:26.421Z,13.18
2017-09-15T07:11:26.425Z,13.11
2017-09-15T07:12:26.423Z,13.11
2017-09-15T07:13:26.425Z,13.03
2017-09-15T07:14:26.426Z,13.13
2017-09-15T07:15:26.430Z,13.05
2017-09-15T07:16:26.434Z,13.11
2017-09-15T07:17:26.429Z,13.12
2017-09-15T07:18:26.431Z,13.04
2017-09-15T07:19:26.433Z,13.12
2017-09-15T07:20:26.432Z,13.08
2017-09-15T07:21:26.434Z,13.12
2017-09-15T07:22:26.431Z,13.20
2017-09-15T07:23:26.438Z,13.27
2017-09-15T07:24:26.441Z,13.30
2017-09-15T07:25:26.438Z,13.42
2017-09-15T07:26:26.440Z,13.44
2017-09-15T07:27:26.441Z,13.35
2017-09-15T07:28:26.447Z,13.38
2017-09-15T07:29:26.443Z,13.47
2017-09-15T07:30:26.445Z,13.50
2017-09-15T07:31:26.451Z,13.57
2017-09-15T07:32:26.450Z,13.63
2017-09-15T07:33:26.451Z,13.68
2017-09-15T07:34:26.453Z,13.70
2017-09-15T07:35:26.462Z,13.85
2017-09-15T07:36:26.457Z,13.95
2017-09-15T07:37:26.458Z,13.93
2017-09-15T07:38:26.459Z,13.97
2017-09-15T07:39:26.459Z,14.04
2017-09-15T07:40:26.464Z,14.12
2017-09-15T07:41:26.472Z,14.15
2017-09-15T07:42:26.479Z,14.04
2017-09-15T07:43:26.466Z,14.07
2017-09-15T07:44:26.469Z,14.07
2017-09-15T07:45:26.470Z,14.12
2017-09-15T07:46:26.476Z,14.11
2017-09-15T07:47:26.478Z,13.97
2017-09-15T07:48:26.487Z,14.07
2017-09-15T07:49:26.480Z,13.99
2017-09-15T07:50:26.483Z,14.08
2017-09-15T07:51:26.491Z,14.05
2017-09-15T07:52:26.487Z,14.04
2017-09-15T07:53:26.490Z,13.99
2017-09-15T07:54:26.495Z,13.89
2017-09-15T07:55:26.496Z,13.95
2017-09-15T07:56:26.497Z,13.89
2017-09-15T07:57:26.498Z,13.81
2017-09-15T07:58:26.499Z,13.79
2017-09-15T07:59:26.503Z,13.86
2017-09-15T08:00:26.506Z,13.96
2017-09-15T08:01:26.503Z,13.89
2017-09-15T08:02:26.514Z,14.04
2017-09-15T08:03:26.520Z,14.08
2017-09-15T08:04:26.516Z,14.12
2017-09-15T08:05:26.518Z,14.20
2017-09-15T08:06:26.533Z,14.22
2017-09-15T08:07:26.520Z,14.25
2017-09-15T08:08:26.520Z,14.26
2017-09-15T08:09:26.525Z,14.22
2017-09-15T08:10:26.525Z,14.29
2017-09-15T08:11:26.528Z,14.28
2017-09-15T08:12:26.531Z,14.32
2017-09-15T08:13:26.533Z,14.35
2017-09-15T08:14:26.532Z,14.37
2017-09-15T08:15:26.542Z,14.41
2017-09-15T08:16:26.541Z,14.32
2017-09-15T08:17:26.542Z,14.45
2017-09-15T08:18:26.548Z,14.51
2017-09-15T08:19:26.551Z,14.60
2017-09-15T08:20:26.550Z,14.58
2017-09-15T08:21:26.569Z,14.65
2017-09-15T08:22:26.556Z,14.68
2017-09-15T08:23:26.553Z,14.59
2017-09-15T08:24:26.561Z,14.59
2017-09-15T08:25:26.564Z,14.48
2017-09-15T08:26:26.566Z,14.50
2017-09-15T08:27:26.567Z,14.47
2017-09-15T08:28:26.572Z,14.50
2017-09-15T08:29:26.579Z,14.51
2017-09-15T08:30:26.578Z,14.41
2017-09-15T08:31:26.583Z,14.48
2017-09-15T08:32:26.582Z,14.33
2017-09-15T08:33:26.584Z,14.28
2017-09-15T08:34:26.588Z,14.29
2017-09-15T08:35:26.591Z,14.23
2017-09-15T08:36:26.598Z,14.12
2017-09-15T08:37:26.597Z,14.28
2017-09-15T08:38:26.608Z,14.30
2017-09-15T08:39:26.605Z,14.43
2017-09-15T08:40:26.600Z,14.62
2017-09-15T08:41:26.607Z,14.63
2017-09-15T08:42:26.609Z,14.77
2017-09-15T08:43:26.610Z,14.99
2017-09-15T08:44:26.614Z,15.17
2017-09-15T08:45:26.617Z,15.28
2017-09-15T08:46:26.619Z,15.35
2017-09-15T08:47:26.619Z,15.25
2017-09-15T08:48:26.624Z,15.07
2017-09-15T08:49:26.627Z,15.09
2017-09-15T08:50:26.627Z,15.09
2017-09-15T08:51:26.635Z,15.17
2017-09-15T08:52:26.636Z,15.29
2017-09-15T08:53:26.653Z,15.55
2017-09-15T08:54:26.641Z,15.40
2017-09-15T08:55:26.643Z,15.35
2017-09-15T08:56:26.647Z,15.22
2017-09-15T08:57:26.653Z,15.03
2017-09-15T08:58:26.655Z,15.14
2017-09-15T08:59:26.659Z,15.22
2017-09-15T09:00:26.661Z,15.29
2017-09-15T09:01:26.665Z,15.44
2017-09-15T09:02:26.670Z,15.65
2017-09-15T09:03:26.665Z,15.70
2017-09-15T09:04:26.677Z,15.73
2017-09-15T09:05:26.681Z,15.64
2017-09-15T09:06:26.680Z,15.62
2017-09-15T09:07:26.686Z,15.62
2017-09-15T09:08:26.690Z,15.54
2017-09-15T09:09:26.691Z,15.49
2017-09-15T09:10:26.695Z,15.28
2017-09-15T09:11:26.713Z,15.24
2017-09-15T09:12:26.703Z,15.19
2017-09-15T09:13:26.763Z,15.25
2017-09-15T09:14:26.710Z,15.44
2017-09-15T09:15:26.716Z,15.42
2017-09-15T09:16:26.718Z,15.49
2017-09-15T09:17:26.723Z,15.49
2017-09-15T09:18:26.726Z,15.52
2017-09-15T09:19:26.727Z,15.51
2017-09-15T09:20:26.728Z,15.51
2017-09-15T09:21:26.737Z,15.46
2017-09-15T09:22:26.738Z,15.54
2017-09-15T09:23:26.740Z,15.59
2017-09-15T09:24:26.743Z,15.72
2017-09-15T09:25:26.752Z,15.86
2017-09-15T09:26:26.755Z,15.95
2017-09-15T09:27:26.756Z,16.08
2017-09-15T09:28:26.760Z,16.12
2017-09-15T09:29:26.805Z,16.12
2017-09-15T09:30:26.775Z,16.28
2017-09-15T09:31:26.773Z,16.42
2017-09-15T09:32:26.779Z,16.43
2017-09-15T09:33:26.781Z,16.53
2017-09-15T09:34:26.790Z,16.41
2017-09-15T09:35:26.811Z,16.39
2017-09-15T09:36:26.816Z,16.31
2017-09-15T09:37:26.812Z,16.36
2017-09-15T09:38:26.839Z,16.29
2017-09-15T09:39:26.817Z,16.39
2017-09-15T09:40:26.849Z,16.53
2017-09-15T09:41:26.833Z,16.56
2017-09-15T09:42:26.823Z,16.51
2017-09-15T09:43:26.829Z,16.33
2017-09-15T09:44:26.838Z,16.20
2017-09-15T09:45:26.839Z,16.16
2017-09-15T09:46:26.839Z,16.05
2017-09-15T09:47:26.865Z,16.15
2017-09-15T09:48:26.851Z,16.17
2017-09-15T09:49:26.854Z,16.32
2017-09-15T09:50:26.857Z,16.24
2017-09-15T09:51:26.876Z,16.32
2017-09-15T09:52:26.869Z,16.33
2017-09-15T09:53:26.869Z,16.15
2017-09-15T09:54:26.888Z,16.16
2017-09-15T09:55:26.880Z,16.12
2017-09-15T09:56:26.879Z,15.97
2017-09-15T09:57:26.886Z,15.80
2017-09-15T09:58:26.897Z,15.97
2017-09-15T09:59:26.901Z,16.04
2017-09-15T10:00:26.907Z,16.02
2017-09-15T10:01:26.912Z,16.12
2017-09-15T10:02:26.913Z,16.36
2017-09-15T10:03:26.919Z,16.47
2017-09-15T10:04:26.924Z,16.57
2017-09-15T10:05:26.927Z,16.60
2017-09-15T10:06:26.932Z,16.64
2017-09-15T10:07:26.939Z,16.61
2017-09-15T10:08:26.942Z,16.46
2017-09-15T10:09:26.947Z,16.58
2017-09-15T10:10:26.954Z,16.75
2017-09-15T10:11:26.955Z,16.96
2017-09-15T10:12:26.960Z,16.99
2017-09-15T10:13:26.963Z,17.01
2017-09-15T10:14:26.970Z,16.97
2017-09-15T10:15:26.970Z,17.06
2017-09-15T10:16:26.985Z,17.06
2017-09-15T10:17:26.983Z,17.09
2017-09-15T10:18:26.989Z,16.99
2017-09-15T10:19:26.996Z,17.08
2017-09-15T10:20:27.000Z,17.19
2017-09-15T10:21:27.004Z,17.26
2017-09-15T10:22:27.006Z,17.29
2017-09-15T10:23:27.015Z,17.30
2017-09-15T10:24:27.019Z,17.29
2017-09-15T10:25:27.029Z,17.27
2017-09-15T10:26:27.027Z,17.33
2017-09-15T10:27:27.036Z,17.30
2017-09-15T10:28:27.050Z,17.38
2017-09-15T10:29:27.044Z,17.44
2017-09-15T10:30:27.051Z,17.31
2017-09-15T10:31:27.057Z,17.39
2017-09-15T10:32:27.066Z,17.44
2017-09-15T10:33:27.067Z,17.33
2017-09-15T10:34:27.074Z,17.38
2017-09-15T10:35:27.078Z,17.39
2017-09-15T10:36:27.159Z,17.41
2017-09-15T10:37:27.091Z,17.51
2017-09-15T10:38:27.094Z,17.49
2017-09-15T10:39:27.100Z,17.49
2017-09-15T10:40:27.106Z,17.45
2017-09-15T10:41:27.111Z,17.36
2017-09-15T10:42:27.118Z,17.34
2017-09-15T10:43:27.126Z,17.36
2017-09-15T10:44:27.131Z,17.30
2017-09-15T10:45:27.139Z,17.22
2017-09-15T10:46:27.140Z,17.19
2017-09-15T10:47:27.146Z,17.16
2017-09-15T10:48:27.160Z,17.27
2017-09-15T10:49:27.156Z,17.34
2017-09-15T10:50:27.163Z,17.39
2017-09-15T10:51:27.165Z,17.42
2017-09-15T10:52:27.177Z,17.44
2017-09-15T10:53:27.184Z,17.56
2017-09-15T10:54:27.183Z,17.65
2017-09-15T10:55:27.194Z,17.60
2017-09-15T10:56:27.199Z,17.60
2017-09-15T10:57:27.204Z,17.59
2017-09-15T10:58:27.208Z,17.60
2017-09-15T10:59:27.244Z,17.59
2017-09-15T11:00:27.220Z,17.70
2017-09-15T11:01:27.230Z,17.64
2017-09-15T11:02:27.232Z,17.59
2017-09-15T11:03:27.236Z,17.68
2017-09-15T11:04:27.242Z,17.60
2017-09-15T11:05:27.248Z,17.48
2017-09-15T11:06:27.254Z,17.39
2017-09-15T11:07:27.259Z,17.38
2017-09-15T11:08:27.265Z,17.48
2017-09-15T11:09:27.270Z,17.48
2017-09-15T11:10:27.275Z,17.45
2017-09-15T11:11:27.280Z,17.49
2017-09-15T11:12:27.288Z,17.63
2017-09-15T11:13:27.292Z,17.79
2017-09-15T11:14:27.296Z,17.79
2017-09-15T11:15:27.303Z,17.89
2017-09-15T11:16:27.313Z,17.86
2017-09-15T11:17:27.316Z,17.94
2017-09-15T11:18:27.321Z,17.98
2017-09-15T11:19:27.326Z,18.03
2017-09-15T11:20:27.333Z,18.04
2017-09-15T11:21:27.337Z,18.11
2017-09-15T11:22:27.346Z,18.13
2017-09-15T11:23:27.349Z,18.03
2017-09-15T11:24:27.356Z,18.18
2017-09-15T11:25:27.373Z,18.04
2017-09-15T11:26:27.369Z,18.11
2017-09-15T11:27:27.386Z,18.23
2017-09-15T11:28:27.382Z,18.38
2017-09-15T11:29:27.385Z,18.49
2017-09-15T11:30:27.395Z,18.50
2017-09-15T11:31:27.408Z,18.45
2017-09-15T11:32:27.407Z,18.45
2017-09-15T11:33:27.411Z,18.63
2017-09-15T11:34:27.414Z,18.58
2017-09-15T11:35:27.421Z,18.62
2017-09-15T11:36:27.432Z,18.60
2017-09-15T11:37:27.476Z,18.59
2017-09-15T11:38:27.444Z,18.53
2017-09-15T11:39:27.457Z,18.53
2017-09-15T11:40:27.456Z,18.59
2017-09-15T11:41:27.463Z,18.49
2017-09-15T11:42:27.469Z,18.55
2017-09-15T11:43:27.477Z,18.45
2017-09-15T11:44:27.478Z,18.40
2017-09-15T11:45:27.490Z,18.26
2017-09-15T11:46:27.496Z,18.22
2017-09-15T11:47:27.503Z,18.00
2017-09-15T11:48:27.506Z,17.68
2017-09-15T11:49:27.514Z,17.63
2017-09-15T11:50:27.522Z,17.70
2017-09-15T11:51:27.527Z,17.80
2017-09-15T11:52:27.536Z,17.90
2017-09-15T11:53:27.541Z,17.80
2017-09-15T11:54:27.549Z,17.82
2017-09-15T11:55:27.552Z,17.90
2017-09-15T11:56:27.561Z,17.90
2017-09-15T11:57:27.564Z,17.90
2017-09-15T11:58:27.572Z,18.08
2017-09-15T11:59:27.578Z,18.22
2017-09-15T12:00:27.583Z,18.28
2017-09-15T12:01:27.590Z,18.34
2017-09-15T12:02:27.601Z,18.26
2017-09-15T12:03:27.600Z,18.29
2017-09-15T12:04:27.612Z,18.13
2017-09-15T12:05:27.610Z,18.15
2017-09-15T12:06:27.617Z,18.11
2017-09-15T12:07:27.622Z,18.16
2017-09-15T12:08:27.632Z,18.16
2017-09-15T12:09:27.642Z,18.13
2017-09-15T12:10:27.640Z,18.13
2017-09-15T12:11:27.657Z,18.11
2017-09-15T12:12:27.652Z,18.13
2017-09-15T12:13:27.661Z,18.00
2017-09-15T12:14:27.670Z,17.94
2017-09-15T12:15:27.672Z,18.00
2017-09-15T12:16:27.679Z,18.11
2017-09-15T12:17:27.686Z,17.89
2017-09-15T12:18:27.691Z,17.80
2017-09-15T12:19:27.697Z,17.74
2017-09-15T12:20:27.712Z,17.71
2017-09-15T12:21:27.708Z,17.72
2017-09-15T12:22:27.762Z,17.65
2017-09-15T12:23:27.725Z,17.67
2017-09-15T12:24:27.729Z,17.59
2017-09-15T12:25:27.731Z,17.56
2017-09-15T12:26:27.737Z,17.45
2017-09-15T12:27:27.743Z,17.57
2017-09-15T12:28:27.746Z,17.57
2017-09-15T12:29:27.753Z,17.60
2017-09-15T12:30:27.757Z,17.60
2017-09-15T12:31:27.766Z,17.60
2017-09-15T12:32:27.769Z,17.48
2017-09-15T12:33:27.794Z,17.41
2017-09-15T12:34:27.786Z,17.48
2017-09-15T12:35:27.791Z,17.51
2017-09-15T12:36:27.798Z,17.65
2017-09-15T12:37:27.792Z,17.72
2017-09-15T12:38:27.803Z,17.92
2017-09-15T12:39:27.818Z,17.98
2017-09-15T12:40:27.833Z,17.94
2017-09-15T12:41:27.818Z,17.94
2017-09-15T12:42:27.848Z,17.94
2017-09-15T12:43:27.833Z,17.83
2017-09-15T12:44:27.849Z,17.89
2017-09-15T12:45:27.847Z,17.92
2017-09-15T12:46:27.851Z,17.82
2017-09-15T12:47:27.856Z,17.86
2017-09-15T12:48:27.860Z,17.78
2017-09-15T12:49:27.864Z,17.82
2017-09-15T12:50:27.872Z,17.57
2017-09-15T12:51:27.875Z,17.65
2017-09-15T12:52:27.886Z,17.76